sensor_id;sensor_type;location;lat;lon;timestamp;temperature;humidity
22069;DHT22;13887;57.196;-2.100;2022-08-21T00:00:48;15.47;62.09
22069;DHT22;13887;57.196;-2.100;2022-08-21T00:03:15;15.46;62.24
22069;DHT22;13887;57.196;-2.100;2022-08-21T00:05:47;15.47;62.00
22069;DHT22;13887;57.196;-2.100;2022-08-21T00:08:17;15.45;62.25
22069;DHT22;13887;57.196;-2.100;2022-08-21T00:10:45;15.44;62.21
22069;DHT22;13887;57.196;-2.100;2022-08-21T00:13:13;15.44;62.36
22069;DHT22;13887;57.196;-2.100;2022-08-21T00:15:45;15.43;62.22
22069;DHT22;13887;57.196;-2.100;2022-08-21T00:18:12;15.43;62.39
22069;DHT22;13887;57.196;-2.100;2022-08-21T00:20:40;15.44;62.37
22069;DHT22;13887;57.196;-2.100;2022-08-21T00:23:08;15.41;62.44
22069;DHT22;13887;57.196;-2.100;2022-08-21T00:25:35;15.38;62.53
22069;DHT22;13887;57.196;-2.100;2022-08-21T00:28:02;15.37;62.44
22069;DHT22;13887;57.196;-2.100;2022-08-21T00:30:30;15.36;62.51
22069;DHT22;13887;57.196;-2.100;2022-08-21T00:32:57;15.33;62.75
22069;DHT22;13887;57.196;-2.100;2022-08-21T00:35:28;15.33;62.69
22069;DHT22;13887;57.196;-2.100;2022-08-21T00:37:56;15.34;62.53
22069;DHT22;13887;57.196;-2.100;2022-08-21T00:40:31;15.32;62.41
22069;DHT22;13887;57.196;-2.100;2022-08-21T00:42:58;15.31;62.37
22069;DHT22;13887;57.196;-2.100;2022-08-21T00:45:26;15.27;62.47
22069;DHT22;13887;57.196;-2.100;2022-08-21T00:47:54;15.26;62.53
22069;DHT22;13887;57.196;-2.100;2022-08-21T00:50:22;15.27;62.66
22069;DHT22;13887;57.196;-2.100;2022-08-21T00:52:52;15.24;62.62
22069;DHT22;13887;57.196;-2.100;2022-08-21T00:55:20;15.23;62.74
22069;DHT22;13887;57.196;-2.100;2022-08-21T00:57:51;15.24;62.60
22069;DHT22;13887;57.196;-2.100;2022-08-21T01:00:26;15.19;62.56
22069;DHT22;13887;57.196;-2.100;2022-08-21T01:02:56;15.14;62.60
22069;DHT22;13887;57.196;-2.100;2022-08-21T01:05:24;15.15;62.69
22069;DHT22;13887;57.196;-2.100;2022-08-21T01:07:51;15.12;62.53
22069;DHT22;13887;57.196;-2.100;2022-08-21T01:10:19;15.13;62.57
22069;DHT22;13887;57.196;-2.100;2022-08-21T01:12:55;15.09;62.60
22069;DHT22;13887;57.196;-2.100;2022-08-21T01:15:27;15.09;62.59
22069;DHT22;13887;57.196;-2.100;2022-08-21T01:17:57;15.07;62.66
22069;DHT22;13887;57.196;-2.100;2022-08-21T01:20:24;15.07;62.82
22069;DHT22;13887;57.196;-2.100;2022-08-21T01:23:02;15.04;62.77
22069;DHT22;13887;57.196;-2.100;2022-08-21T01:25:30;15.06;62.82
22069;DHT22;13887;57.196;-2.100;2022-08-21T01:27:59;15.04;62.82
22069;DHT22;13887;57.196;-2.100;2022-08-21T01:30:28;15.03;62.71
22069;DHT22;13887;57.196;-2.100;2022-08-21T01:32:56;14.98;62.86
22069;DHT22;13887;57.196;-2.100;2022-08-21T01:35:23;14.98;62.88
22069;DHT22;13887;57.196;-2.100;2022-08-21T01:37:50;14.98;63.01
22069;DHT22;13887;57.196;-2.100;2022-08-21T01:40:18;14.97;62.95
22069;DHT22;13887;57.196;-2.100;2022-08-21T01:42:46;14.96;63.03
22069;DHT22;13887;57.196;-2.100;2022-08-21T01:45:14;14.96;63.20
22069;DHT22;13887;57.196;-2.100;2022-08-21T01:47:44;14.96;63.08
22069;DHT22;13887;57.196;-2.100;2022-08-21T01:50:15;14.93;63.46
22069;DHT22;13887;57.196;-2.100;2022-08-21T01:52:42;14.94;63.35
22069;DHT22;13887;57.196;-2.100;2022-08-21T01:55:10;14.91;63.37
22069;DHT22;13887;57.196;-2.100;2022-08-21T01:57:37;14.87;63.46
22069;DHT22;13887;57.196;-2.100;2022-08-21T02:00:08;14.89;63.46
22069;DHT22;13887;57.196;-2.100;2022-08-21T02:02:40;14.89;63.46
22069;DHT22;13887;57.196;-2.100;2022-08-21T02:05:10;14.87;63.49
22069;DHT22;13887;57.196;-2.100;2022-08-21T02:07:45;14.87;63.43
22069;DHT22;13887;57.196;-2.100;2022-08-21T02:10:22;14.87;63.44
22069;DHT22;13887;57.196;-2.100;2022-08-21T02:12:51;14.84;63.63
22069;DHT22;13887;57.196;-2.100;2022-08-21T02:15:18;14.84;63.60
22069;DHT22;13887;57.196;-2.100;2022-08-21T02:17:54;14.84;63.60
22069;DHT22;13887;57.196;-2.100;2022-08-21T02:20:26;14.83;63.54
22069;DHT22;13887;57.196;-2.100;2022-08-21T02:22:54;14.83;63.44
22069;DHT22;13887;57.196;-2.100;2022-08-21T02:25:23;14.81;63.66
22069;DHT22;13887;57.196;-2.100;2022-08-21T02:27:51;14.80;63.74
22069;DHT22;13887;57.196;-2.100;2022-08-21T02:30:25;14.81;63.66
22069;DHT22;13887;57.196;-2.100;2022-08-21T02:32:54;14.80;63.71
22069;DHT22;13887;57.196;-2.100;2022-08-21T02:35:21;14.79;63.79
22069;DHT22;13887;57.196;-2.100;2022-08-21T02:37:55;14.77;63.83
22069;DHT22;13887;57.196;-2.100;2022-08-21T02:40:25;14.79;63.69
22069;DHT22;13887;57.196;-2.100;2022-08-21T02:42:53;14.79;63.73
22069;DHT22;13887;57.196;-2.100;2022-08-21T02:45:20;14.79;63.80
22069;DHT22;13887;57.196;-2.100;2022-08-21T02:47:57;14.78;63.79
22069;DHT22;13887;57.196;-2.100;2022-08-21T02:50:39;14.77;63.87
22069;DHT22;13887;57.196;-2.100;2022-08-21T02:53:08;14.74;63.96
22069;DHT22;13887;57.196;-2.100;2022-08-21T02:55:35;14.71;64.06
22069;DHT22;13887;57.196;-2.100;2022-08-21T02:58:05;14.71;64.03
22069;DHT22;13887;57.196;-2.100;2022-08-21T03:00:34;14.73;63.94
22069;DHT22;13887;57.196;-2.100;2022-08-21T03:03:04;14.72;63.98
22069;DHT22;13887;57.196;-2.100;2022-08-21T03:05:33;14.71;64.09
22069;DHT22;13887;57.196;-2.100;2022-08-21T03:08:02;14.70;64.14
22069;DHT22;13887;57.196;-2.100;2022-08-21T03:10:30;14.69;64.17
22069;DHT22;13887;57.196;-2.100;2022-08-21T03:12:58;14.69;64.16
22069;DHT22;13887;57.196;-2.100;2022-08-21T03:15:25;14.67;64.23
22069;DHT22;13887;57.196;-2.100;2022-08-21T03:17:52;14.66;64.27
22069;DHT22;13887;57.196;-2.100;2022-08-21T03:20:23;14.65;64.25
22069;DHT22;13887;57.196;-2.100;2022-08-21T03:22:51;14.65;64.30
22069;DHT22;13887;57.196;-2.100;2022-08-21T03:25:20;14.63;64.37
22069;DHT22;13887;57.196;-2.100;2022-08-21T03:28:08;14.59;64.50
22069;DHT22;13887;57.196;-2.100;2022-08-21T03:30:44;14.59;64.50
22069;DHT22;13887;57.196;-2.100;2022-08-21T03:33:11;14.59;64.53
22069;DHT22;13887;57.196;-2.100;2022-08-21T03:35:43;14.60;64.43
22069;DHT22;13887;57.196;-2.100;2022-08-21T03:38:10;14.64;64.40
22069;DHT22;13887;57.196;-2.100;2022-08-21T03:40:40;14.65;64.37
22069;DHT22;13887;57.196;-2.100;2022-08-21T03:43:07;14.63;64.35
22069;DHT22;13887;57.196;-2.100;2022-08-21T03:45:36;14.59;64.51
22069;DHT22;13887;57.196;-2.100;2022-08-21T03:48:05;14.58;64.56
22069;DHT22;13887;57.196;-2.100;2022-08-21T03:50:36;14.59;64.57
22069;DHT22;13887;57.196;-2.100;2022-08-21T03:53:09;14.59;64.56
22069;DHT22;13887;57.196;-2.100;2022-08-21T03:55:48;14.58;64.54
22069;DHT22;13887;57.196;-2.100;2022-08-21T03:58:17;14.60;64.59
22069;DHT22;13887;57.196;-2.100;2022-08-21T04:00:46;14.60;64.56
22069;DHT22;13887;57.196;-2.100;2022-08-21T04:03:13;14.60;64.59
22069;DHT22;13887;57.196;-2.100;2022-08-21T04:05:41;14.60;64.55
22069;DHT22;13887;57.196;-2.100;2022-08-21T04:08:08;14.63;64.48
22069;DHT22;13887;57.196;-2.100;2022-08-21T04:10:37;14.66;64.41
22069;DHT22;13887;57.196;-2.100;2022-08-21T04:13:06;14.64;64.53
22069;DHT22;13887;57.196;-2.100;2022-08-21T04:15:33;14.63;64.53
22069;DHT22;13887;57.196;-2.100;2022-08-21T04:18:01;14.62;64.56
22069;DHT22;13887;57.196;-2.100;2022-08-21T04:20:28;14.63;64.56
22069;DHT22;13887;57.196;-2.100;2022-08-21T04:22:55;14.60;64.69
22069;DHT22;13887;57.196;-2.100;2022-08-21T04:25:23;14.62;64.68
22069;DHT22;13887;57.196;-2.100;2022-08-21T04:27:52;14.64;64.58
22069;DHT22;13887;57.196;-2.100;2022-08-21T04:30:19;14.56;64.77
22069;DHT22;13887;57.196;-2.100;2022-08-21T04:32:55;14.56;64.86
22069;DHT22;13887;57.196;-2.100;2022-08-21T04:35:23;14.57;64.79
22069;DHT22;13887;57.196;-2.100;2022-08-21T04:37:51;14.59;64.75
22069;DHT22;13887;57.196;-2.100;2022-08-21T04:40:19;14.58;64.85
22069;DHT22;13887;57.196;-2.100;2022-08-21T04:42:53;14.58;64.82
22069;DHT22;13887;57.196;-2.100;2022-08-21T04:45:26;14.58;64.85
22069;DHT22;13887;57.196;-2.100;2022-08-21T04:47:56;14.59;64.79
22069;DHT22;13887;57.196;-2.100;2022-08-21T04:50:37;14.57;64.88
22069;DHT22;13887;57.196;-2.100;2022-08-21T04:53:08;14.57;64.93
22069;DHT22;13887;57.196;-2.100;2022-08-21T04:55:37;14.58;64.85
22069;DHT22;13887;57.196;-2.100;2022-08-21T04:58:06;14.57;64.92
22069;DHT22;13887;57.196;-2.100;2022-08-21T05:00:35;14.62;64.82
22069;DHT22;13887;57.196;-2.100;2022-08-21T05:03:04;14.58;64.92
22069;DHT22;13887;57.196;-2.100;2022-08-21T05:05:32;14.56;64.97
22069;DHT22;13887;57.196;-2.100;2022-08-21T05:08:01;14.56;64.99
22069;DHT22;13887;57.196;-2.100;2022-08-21T05:10:29;14.54;65.11
22069;DHT22;13887;57.196;-2.100;2022-08-21T05:12:58;14.54;65.12
22069;DHT22;13887;57.196;-2.100;2022-08-21T05:15:26;14.53;65.11
22069;DHT22;13887;57.196;-2.100;2022-08-21T05:17:53;14.49;65.21
22069;DHT22;13887;57.196;-2.100;2022-08-21T05:20:27;14.50;65.26
22069;DHT22;13887;57.196;-2.100;2022-08-21T05:22:54;14.48;65.30
22069;DHT22;13887;57.196;-2.100;2022-08-21T05:25:22;14.51;65.17
22069;DHT22;13887;57.196;-2.100;2022-08-21T05:27:49;14.51;65.17
22069;DHT22;13887;57.196;-2.100;2022-08-21T05:30:18;14.49;65.23
22069;DHT22;13887;57.196;-2.100;2022-08-21T05:32:46;14.48;65.26
22069;DHT22;13887;57.196;-2.100;2022-08-21T05:35:14;14.48;65.31
22069;DHT22;13887;57.196;-2.100;2022-08-21T05:37:41;14.47;65.37
22069;DHT22;13887;57.196;-2.100;2022-08-21T05:40:09;14.48;65.37
22069;DHT22;13887;57.196;-2.100;2022-08-21T05:42:50;14.45;65.40
22069;DHT22;13887;57.196;-2.100;2022-08-21T05:45:23;14.49;65.30
22069;DHT22;13887;57.196;-2.100;2022-08-21T05:48:27;14.48;65.30
22069;DHT22;13887;57.196;-2.100;2022-08-21T05:50:54;14.44;65.49
22069;DHT22;13887;57.196;-2.100;2022-08-21T05:53:23;14.43;65.50
22069;DHT22;13887;57.196;-2.100;2022-08-21T05:55:51;14.45;65.44
22069;DHT22;13887;57.196;-2.100;2022-08-21T05:58:20;14.43;65.48
22069;DHT22;13887;57.196;-2.100;2022-08-21T06:00:49;14.45;65.46
22069;DHT22;13887;57.196;-2.100;2022-08-21T06:03:23;14.48;65.37
22069;DHT22;13887;57.196;-2.100;2022-08-21T06:05:51;14.51;65.30
22069;DHT22;13887;57.196;-2.100;2022-08-21T06:08:20;14.49;65.42
22069;DHT22;13887;57.196;-2.100;2022-08-21T06:10:48;14.45;65.57
22069;DHT22;13887;57.196;-2.100;2022-08-21T06:13:17;14.48;65.53
22069;DHT22;13887;57.196;-2.100;2022-08-21T06:15:44;14.49;65.50
22069;DHT22;13887;57.196;-2.100;2022-08-21T06:18:11;14.49;65.49
22069;DHT22;13887;57.196;-2.100;2022-08-21T06:20:39;14.50;65.50
22069;DHT22;13887;57.196;-2.100;2022-08-21T06:23:06;14.49;65.56
22069;DHT22;13887;57.196;-2.100;2022-08-21T06:25:34;14.51;65.48
22069;DHT22;13887;57.196;-2.100;2022-08-21T06:28:08;14.50;65.54
22069;DHT22;13887;57.196;-2.100;2022-08-21T06:30:38;14.50;65.57
22069;DHT22;13887;57.196;-2.100;2022-08-21T06:33:05;14.50;65.67
22069;DHT22;13887;57.196;-2.100;2022-08-21T06:35:34;14.51;65.65
22069;DHT22;13887;57.196;-2.100;2022-08-21T06:38:01;14.56;65.43
22069;DHT22;13887;57.196;-2.100;2022-08-21T06:40:29;14.57;65.43
22069;DHT22;13887;57.196;-2.100;2022-08-21T06:43:09;14.54;65.55
22069;DHT22;13887;57.196;-2.100;2022-08-21T06:45:41;14.55;65.55
22069;DHT22;13887;57.196;-2.100;2022-08-21T06:48:08;14.54;65.66
22069;DHT22;13887;57.196;-2.100;2022-08-21T06:50:35;14.53;65.69
22069;DHT22;13887;57.196;-2.100;2022-08-21T06:53:09;14.54;65.66
22069;DHT22;13887;57.196;-2.100;2022-08-21T06:55:37;14.56;65.60
22069;DHT22;13887;57.196;-2.100;2022-08-21T06:58:05;14.54;65.72
22069;DHT22;13887;57.196;-2.100;2022-08-21T07:00:33;14.53;65.74
22069;DHT22;13887;57.196;-2.100;2022-08-21T07:03:01;14.52;65.86
22069;DHT22;13887;57.196;-2.100;2022-08-21T07:05:29;14.52;65.81
22069;DHT22;13887;57.196;-2.100;2022-08-21T07:07:57;14.56;65.66
22069;DHT22;13887;57.196;-2.100;2022-08-21T07:10:25;14.52;65.81
22069;DHT22;13887;57.196;-2.100;2022-08-21T07:12:53;14.52;65.80
22069;DHT22;13887;57.196;-2.100;2022-08-21T07:15:29;14.53;65.88
22069;DHT22;13887;57.196;-2.100;2022-08-21T07:17:58;14.55;65.79
22069;DHT22;13887;57.196;-2.100;2022-08-21T07:20:27;14.56;65.75
22069;DHT22;13887;57.196;-2.100;2022-08-21T07:22:59;14.58;65.75
22069;DHT22;13887;57.196;-2.100;2022-08-21T07:25:27;14.58;65.67
22069;DHT22;13887;57.196;-2.100;2022-08-21T07:27:54;14.60;65.66
22069;DHT22;13887;57.196;-2.100;2022-08-21T07:30:21;14.62;65.53
22069;DHT22;13887;57.196;-2.100;2022-08-21T07:32:49;14.62;65.55
22069;DHT22;13887;57.196;-2.100;2022-08-21T07:35:18;14.62;65.56
22069;DHT22;13887;57.196;-2.100;2022-08-21T07:37:45;14.63;65.56
22069;DHT22;13887;57.196;-2.100;2022-08-21T07:40:13;14.65;65.50
22069;DHT22;13887;57.196;-2.100;2022-08-21T07:42:41;14.64;65.50
22069;DHT22;13887;57.196;-2.100;2022-08-21T07:45:10;14.65;65.45
22069;DHT22;13887;57.196;-2.100;2022-08-21T07:47:37;14.67;65.44
22069;DHT22;13887;57.196;-2.100;2022-08-21T07:50:10;14.67;65.46
22069;DHT22;13887;57.196;-2.100;2022-08-21T07:52:39;14.68;65.34
22069;DHT22;13887;57.196;-2.100;2022-08-21T07:55:08;14.71;65.31
22069;DHT22;13887;57.196;-2.100;2022-08-21T07:57:35;14.71;65.27
22069;DHT22;13887;57.196;-2.100;2022-08-21T08:00:04;14.70;65.30
22069;DHT22;13887;57.196;-2.100;2022-08-21T08:02:38;14.70;65.34
22069;DHT22;13887;57.196;-2.100;2022-08-21T08:05:07;14.72;65.28
22069;DHT22;13887;57.196;-2.100;2022-08-21T08:07:35;14.74;65.21
22069;DHT22;13887;57.196;-2.100;2022-08-21T08:10:04;14.74;65.27
22069;DHT22;13887;57.196;-2.100;2022-08-21T08:12:35;14.73;65.25
22069;DHT22;13887;57.196;-2.100;2022-08-21T08:15:03;14.79;65.05
22069;DHT22;13887;57.196;-2.100;2022-08-21T08:17:30;14.78;64.92
22069;DHT22;13887;57.196;-2.100;2022-08-21T08:19:59;14.79;65.05
22069;DHT22;13887;57.196;-2.100;2022-08-21T08:22:29;14.82;64.96
22069;DHT22;13887;57.196;-2.100;2022-08-21T08:24:56;14.81;65.13
22069;DHT22;13887;57.196;-2.100;2022-08-21T08:27:23;14.81;65.19
22069;DHT22;13887;57.196;-2.100;2022-08-21T08:29:51;14.79;65.00
22069;DHT22;13887;57.196;-2.100;2022-08-21T08:32:19;14.80;64.91
22069;DHT22;13887;57.196;-2.100;2022-08-21T08:34:46;14.81;64.96
22069;DHT22;13887;57.196;-2.100;2022-08-21T08:37:15;14.82;65.01
22069;DHT22;13887;57.196;-2.100;2022-08-21T08:39:43;14.82;64.97
22069;DHT22;13887;57.196;-2.100;2022-08-21T08:42:24;14.83;65.00
22069;DHT22;13887;57.196;-2.100;2022-08-21T08:45:02;14.84;64.98
22069;DHT22;13887;57.196;-2.100;2022-08-21T08:47:31;14.84;65.11
22069;DHT22;13887;57.196;-2.100;2022-08-21T08:50:19;14.85;65.10
22069;DHT22;13887;57.196;-2.100;2022-08-21T08:52:52;14.87;64.82
22069;DHT22;13887;57.196;-2.100;2022-08-21T08:55:26;14.88;64.79
22069;DHT22;13887;57.196;-2.100;2022-08-21T08:57:55;14.93;64.20
22069;DHT22;13887;57.196;-2.100;2022-08-21T09:00:23;14.95;64.07
22069;DHT22;13887;57.196;-2.100;2022-08-21T09:03:01;14.98;63.88
22069;DHT22;13887;57.196;-2.100;2022-08-21T09:05:40;15.00;63.71
22069;DHT22;13887;57.196;-2.100;2022-08-21T09:27:12;15.12;63.36
22069;DHT22;13887;57.196;-2.100;2022-08-21T09:29:42;15.11;63.34
22069;DHT22;13887;57.196;-2.100;2022-08-21T09:32:15;15.10;63.40
22069;DHT22;13887;57.196;-2.100;2022-08-21T09:37:24;15.10;63.63
22069;DHT22;13887;57.196;-2.100;2022-08-21T09:39:52;15.11;63.65
22069;DHT22;13887;57.196;-2.100;2022-08-21T09:42:26;15.13;63.04
22069;DHT22;13887;57.196;-2.100;2022-08-21T09:45:15;15.13;62.99
22069;DHT22;13887;57.196;-2.100;2022-08-21T09:47:43;15.15;62.96
22069;DHT22;13887;57.196;-2.100;2022-08-21T09:50:19;15.13;62.23
22069;DHT22;13887;57.196;-2.100;2022-08-21T09:52:53;15.12;62.33
22069;DHT22;13887;57.196;-2.100;2022-08-21T09:55:54;15.16;62.53
22069;DHT22;13887;57.196;-2.100;2022-08-21T09:58:44;15.15;62.82
22069;DHT22;13887;57.196;-2.100;2022-08-21T10:01:24;15.18;62.88
22069;DHT22;13887;57.196;-2.100;2022-08-21T10:04:04;15.21;62.80
22069;DHT22;13887;57.196;-2.100;2022-08-21T10:06:31;15.23;62.66
22069;DHT22;13887;57.196;-2.100;2022-08-21T10:09:10;15.24;63.04
22069;DHT22;13887;57.196;-2.100;2022-08-21T10:17:44;15.31;62.57
22069;DHT22;13887;57.196;-2.100;2022-08-21T10:47:54;15.49;61.34
22069;DHT22;13887;57.196;-2.100;2022-08-21T11:01:57;15.41;62.37
22069;DHT22;13887;57.196;-2.100;2022-08-21T11:07:43;15.43;62.51
22069;DHT22;13887;57.196;-2.100;2022-08-21T11:10:31;15.43;62.41
22069;DHT22;13887;57.196;-2.100;2022-08-21T11:13:31;15.45;62.46
22069;DHT22;13887;57.196;-2.100;2022-08-21T11:16:26;15.44;62.28
22069;DHT22;13887;57.196;-2.100;2022-08-21T11:21:38;15.45;61.87
22069;DHT22;13887;57.196;-2.100;2022-08-21T11:29:50;15.42;61.89
22069;DHT22;13887;57.196;-2.100;2022-08-21T11:45:54;15.56;61.92
22069;DHT22;13887;57.196;-2.100;2022-08-21T11:48:44;15.58;61.67
22069;DHT22;13887;57.196;-2.100;2022-08-21T11:51:25;15.61;62.47
22069;DHT22;13887;57.196;-2.100;2022-08-21T11:54:11;15.60;62.28
22069;DHT22;13887;57.196;-2.100;2022-08-21T11:56:45;15.62;61.15
22069;DHT22;13887;57.196;-2.100;2022-08-21T11:59:29;15.62;61.38
22069;DHT22;13887;57.196;-2.100;2022-08-21T12:02:11;15.62;61.44
22069;DHT22;13887;57.196;-2.100;2022-08-21T12:04:52;15.65;60.64
22069;DHT22;13887;57.196;-2.100;2022-08-21T12:07:48;15.65;61.33
22069;DHT22;13887;57.196;-2.100;2022-08-21T12:10:18;15.67;60.44
22069;DHT22;13887;57.196;-2.100;2022-08-21T12:12:48;15.66;61.15
22069;DHT22;13887;57.196;-2.100;2022-08-21T12:25:47;15.73;60.22
22069;DHT22;13887;57.196;-2.100;2022-08-21T12:28:26;15.74;59.96
22069;DHT22;13887;57.196;-2.100;2022-08-21T12:30:53;15.76;60.07
22069;DHT22;13887;57.196;-2.100;2022-08-21T12:36:11;15.76;59.94
22069;DHT22;13887;57.196;-2.100;2022-08-21T12:38:56;15.80;60.46
22069;DHT22;13887;57.196;-2.100;2022-08-21T12:41:32;15.83;60.14
22069;DHT22;13887;57.196;-2.100;2022-08-21T12:44:04;15.86;59.69
22069;DHT22;13887;57.196;-2.100;2022-08-21T12:46:59;15.88;59.01
22069;DHT22;13887;57.196;-2.100;2022-08-21T12:49:29;15.90;59.11
22069;DHT22;13887;57.196;-2.100;2022-08-21T12:52:29;15.91;58.77
22069;DHT22;13887;57.196;-2.100;2022-08-21T12:55:01;15.89;58.88
22069;DHT22;13887;57.196;-2.100;2022-08-21T12:57:30;15.88;59.40
22069;DHT22;13887;57.196;-2.100;2022-08-21T13:00:05;15.89;60.01
22069;DHT22;13887;57.196;-2.100;2022-08-21T13:02:43;15.88;59.74
22069;DHT22;13887;57.196;-2.100;2022-08-21T13:05:16;15.91;58.77
22069;DHT22;13887;57.196;-2.100;2022-08-21T13:07:47;15.93;58.50
22069;DHT22;13887;57.196;-2.100;2022-08-21T13:10:41;17.09;47.46
22069;DHT22;13887;57.196;-2.100;2022-08-21T13:13:16;17.34;47.15
22069;DHT22;13887;57.196;-2.100;2022-08-21T13:16:04;16.96;50.82
22069;DHT22;13887;57.196;-2.100;2022-08-21T13:18:35;16.55;54.18
22069;DHT22;13887;57.196;-2.100;2022-08-21T13:21:12;16.35;55.13
22069;DHT22;13887;57.196;-2.100;2022-08-21T13:23:40;16.26;56.12
22069;DHT22;13887;57.196;-2.100;2022-08-21T13:26:19;16.20;55.45
22069;DHT22;13887;57.196;-2.100;2022-08-21T13:28:47;16.19;56.40
22069;DHT22;13887;57.196;-2.100;2022-08-21T13:31:27;16.20;56.77
22069;DHT22;13887;57.196;-2.100;2022-08-21T13:33:55;16.19;57.42
22069;DHT22;13887;57.196;-2.100;2022-08-21T13:36:37;16.17;57.57
22069;DHT22;13887;57.196;-2.100;2022-08-21T13:39:17;16.21;58.29
22069;DHT22;13887;57.196;-2.100;2022-08-21T13:41:48;16.22;56.54
22069;DHT22;13887;57.196;-2.100;2022-08-21T13:44:35;16.28;57.68
22069;DHT22;13887;57.196;-2.100;2022-08-21T13:47:04;16.29;57.64
22069;DHT22;13887;57.196;-2.100;2022-08-21T13:49:38;16.31;57.87
22069;DHT22;13887;57.196;-2.100;2022-08-21T13:52:21;16.31;58.73
22069;DHT22;13887;57.196;-2.100;2022-08-21T13:55:00;16.27;57.99
22069;DHT22;13887;57.196;-2.100;2022-08-21T13:57:31;16.26;59.34
22069;DHT22;13887;57.196;-2.100;2022-08-21T14:00:24;16.25;59.29
22069;DHT22;13887;57.196;-2.100;2022-08-21T14:02:53;16.27;59.64
22069;DHT22;13887;57.196;-2.100;2022-08-21T14:05:33;16.29;59.64
22069;DHT22;13887;57.196;-2.100;2022-08-21T14:08:11;16.28;59.42
22069;DHT22;13887;57.196;-2.100;2022-08-21T14:10:45;16.30;59.66
22069;DHT22;13887;57.196;-2.100;2022-08-21T14:13:39;16.32;59.36
22069;DHT22;13887;57.196;-2.100;2022-08-21T14:16:25;16.33;58.91
22069;DHT22;13887;57.196;-2.100;2022-08-21T14:21:35;16.37;58.96
22069;DHT22;13887;57.196;-2.100;2022-08-21T14:24:11;16.39;59.12
22069;DHT22;13887;57.196;-2.100;2022-08-21T14:26:56;16.43;59.96
22069;DHT22;13887;57.196;-2.100;2022-08-21T14:29:26;16.45;60.20
22069;DHT22;13887;57.196;-2.100;2022-08-21T14:32:09;16.46;59.75
22069;DHT22;13887;57.196;-2.100;2022-08-21T14:34:50;16.50;59.96
22069;DHT22;13887;57.196;-2.100;2022-08-21T14:37:17;16.54;59.07
22069;DHT22;13887;57.196;-2.100;2022-08-21T14:39:44;16.54;58.61
22069;DHT22;13887;57.196;-2.100;2022-08-21T14:42:12;16.55;59.92
22069;DHT22;13887;57.196;-2.100;2022-08-21T14:44:39;16.54;59.32
22069;DHT22;13887;57.196;-2.100;2022-08-21T14:47:08;16.56;60.33
22069;DHT22;13887;57.196;-2.100;2022-08-21T14:49:35;17.24;52.33
22069;DHT22;13887;57.196;-2.100;2022-08-21T14:52:02;18.28;48.77
22069;DHT22;13887;57.196;-2.100;2022-08-21T14:54:30;18.42;47.60
22069;DHT22;13887;57.196;-2.100;2022-08-21T14:57:02;18.52;47.02
22069;DHT22;13887;57.196;-2.100;2022-08-21T14:59:30;18.51;47.48
22069;DHT22;13887;57.196;-2.100;2022-08-21T15:02:00;18.49;47.14
22069;DHT22;13887;57.196;-2.100;2022-08-21T15:04:27;18.41;47.09
22069;DHT22;13887;57.196;-2.100;2022-08-21T15:06:54;18.48;46.99
22069;DHT22;13887;57.196;-2.100;2022-08-21T15:09:21;18.46;49.99
22069;DHT22;13887;57.196;-2.100;2022-08-21T15:11:48;18.74;48.02
22069;DHT22;13887;57.196;-2.100;2022-08-21T15:14:23;18.70;51.04
22069;DHT22;13887;57.196;-2.100;2022-08-21T15:16:50;18.33;51.03
22069;DHT22;13887;57.196;-2.100;2022-08-21T15:19:18;18.38;53.23
22069;DHT22;13887;57.196;-2.100;2022-08-21T15:21:45;18.11;50.72
22069;DHT22;13887;57.196;-2.100;2022-08-21T15:24:12;17.97;52.91
22069;DHT22;13887;57.196;-2.100;2022-08-21T15:26:39;17.79;52.79
22069;DHT22;13887;57.196;-2.100;2022-08-21T15:29:08;17.93;52.59
22069;DHT22;13887;57.196;-2.100;2022-08-21T15:31:36;18.05;52.70
22069;DHT22;13887;57.196;-2.100;2022-08-21T15:34:03;18.15;52.38
22069;DHT22;13887;57.196;-2.100;2022-08-21T15:36:30;18.37;52.26
22069;DHT22;13887;57.196;-2.100;2022-08-21T15:38:57;18.20;52.85
22069;DHT22;13887;57.196;-2.100;2022-08-21T15:41:24;18.11;52.08
22069;DHT22;13887;57.196;-2.100;2022-08-21T15:43:52;18.04;52.73
22069;DHT22;13887;57.196;-2.100;2022-08-21T15:46:20;18.12;54.43
22069;DHT22;13887;57.196;-2.100;2022-08-21T15:48:47;18.32;52.45
22069;DHT22;13887;57.196;-2.100;2022-08-21T15:51:16;18.22;54.01
22069;DHT22;13887;57.196;-2.100;2022-08-21T15:53:43;18.10;52.28
22069;DHT22;13887;57.196;-2.100;2022-08-21T15:56:34;18.18;54.20
22069;DHT22;13887;57.196;-2.100;2022-08-21T15:59:07;18.07;52.65
22069;DHT22;13887;57.196;-2.100;2022-08-21T16:01:35;18.25;53.39
22069;DHT22;13887;57.196;-2.100;2022-08-21T16:04:18;18.30;52.20
22069;DHT22;13887;57.196;-2.100;2022-08-21T16:06:46;18.30;54.30
22069;DHT22;13887;57.196;-2.100;2022-08-21T16:09:22;18.09;51.47
22069;DHT22;13887;57.196;-2.100;2022-08-21T16:11:50;17.94;50.73
22069;DHT22;13887;57.196;-2.100;2022-08-21T16:14:17;18.02;50.84
22069;DHT22;13887;57.196;-2.100;2022-08-21T16:16:44;18.23;51.35
22069;DHT22;13887;57.196;-2.100;2022-08-21T16:19:12;17.90;53.18
22069;DHT22;13887;57.196;-2.100;2022-08-21T16:21:40;17.74;53.53
22069;DHT22;13887;57.196;-2.100;2022-08-21T16:24:07;17.63;54.59
22069;DHT22;13887;57.196;-2.100;2022-08-21T16:26:34;17.59;55.16
22069;DHT22;13887;57.196;-2.100;2022-08-21T16:29:03;17.56;54.91
22069;DHT22;13887;57.196;-2.100;2022-08-21T16:31:32;17.63;55.49
22069;DHT22;13887;57.196;-2.100;2022-08-21T16:33:59;17.68;55.04
22069;DHT22;13887;57.196;-2.100;2022-08-21T16:36:27;17.74;57.55
22069;DHT22;13887;57.196;-2.100;2022-08-21T16:38:56;17.75;54.84
22069;DHT22;13887;57.196;-2.100;2022-08-21T16:41:26;17.74;55.82
22069;DHT22;13887;57.196;-2.100;2022-08-21T16:43:54;17.77;57.23
22069;DHT22;13887;57.196;-2.100;2022-08-21T16:46:21;17.79;55.54
22069;DHT22;13887;57.196;-2.100;2022-08-21T16:48:48;17.75;55.81
22069;DHT22;13887;57.196;-2.100;2022-08-21T16:51:16;17.64;56.22
22069;DHT22;13887;57.196;-2.100;2022-08-21T16:53:43;17.56;55.83
22069;DHT22;13887;57.196;-2.100;2022-08-21T16:56:12;17.50;54.58
22069;DHT22;13887;57.196;-2.100;2022-08-21T16:58:44;17.47;55.06
22069;DHT22;13887;57.196;-2.100;2022-08-21T17:01:13;17.41;54.85
22069;DHT22;13887;57.196;-2.100;2022-08-21T17:03:44;17.38;54.87
22069;DHT22;13887;57.196;-2.100;2022-08-21T17:06:13;17.35;55.74
22069;DHT22;13887;57.196;-2.100;2022-08-21T17:08:41;17.31;56.23
22069;DHT22;13887;57.196;-2.100;2022-08-21T17:14:11;17.25;54.85
22069;DHT22;13887;57.196;-2.100;2022-08-21T17:16:43;17.23;55.20
22069;DHT22;13887;57.196;-2.100;2022-08-21T17:19:12;17.23;55.52
22069;DHT22;13887;57.196;-2.100;2022-08-21T17:21:39;17.21;55.75
22069;DHT22;13887;57.196;-2.100;2022-08-21T17:24:06;17.19;55.99
22069;DHT22;13887;57.196;-2.100;2022-08-21T17:26:33;17.19;55.68
22069;DHT22;13887;57.196;-2.100;2022-08-21T17:29:00;17.18;55.77
22069;DHT22;13887;57.196;-2.100;2022-08-21T17:31:28;17.16;55.85